• Join FlightAware (Why Join?)
  • Login
  • US Flag 
05:39PM EDT


 

Airport Tracker/Info


-or-


 

Live Flight TrackerFlight Track Log ✈ RPA3228 ✈ 16-Sep-2013 ✈ KDCA - KBUF

Flight Track Log - Related Links

Times and Time Zones

All times are in EDT time to prevent confusion due to time zone crossing. See the RPA3228 flight status page for this flight to view local times or setup timezone preferences in your user account.

Time Position Orientation Groundspeed Altitude Reporting Facility
EDT Latitude Longitude Course Direction KTS MPH feet Rate Location/Type
11:46AM 38.8833 -77.0667 North 133 153 1,900  Level Potomac TRACON
11:48AM 38.9739 -77.1697 319° Northwest 207 238 7,500 2,760 Climbing Washington Center
11:49AM 39.2139 -77.1791 339° North  Level Estimated
11:49AM 39.0167 -77.2453 306° West 238 274 10,600  Level Washington Center
11:50AM 39.3044 -77.2146 339° North  Level Estimated
11:51AM 39.3949 -77.2503 North  Level Estimated
11:51AM 39.1419 -77.3714 322° Northwest 280 322 15,600  Level Washington Center
11:53AM 39.3222 -77.4031 352° North 336 387 19,300 2,160 Climbing New York Center
11:54AM 39.4275 -77.4211 352° North 356 410 21,300 1,860 Climbing New York Center
11:55AM 39.5392 -77.4397 353° North 386 444 23,100 1,320 Climbing New York Center
11:56AM 39.6531 -77.4558 354° North 398 458 24,000 420 Climbing New York Center
11:57AM 39.7717 -77.4564 360° North 411 473 24,000  Level New York Center
11:58AM 39.8864 -77.4564 360° North 416 479 24,000  Level New York Center
11:59AM 39.9928 -77.4936 345° North 409 471 24,000  Level New York Center
12:00PM 40.0992 -77.5311 345° North 397 457 24,000  Level New York Center
12:01PM 40.2053 -77.5714 344° North 397 457 24,000  Level New York Center
12:03PM 40.4314 -77.6589 344° North 392 451 24,000  Level Cleveland Center
12:04PM 40.5325 -77.6964 344° North 384 442 24,000  Level Cleveland Center
12:05PM 40.6331 -77.7353 344° North 381 438 24,000  Level Cleveland Center
12:06PM 40.7342 -77.7736 344° North 381 438 24,000  Level Cleveland Center
12:07PM 40.8369 -77.8117 344° North 386 444 24,000  Level Cleveland Center
12:08PM 40.9611 -77.8606 343° North 391 450 24,000  Level Cleveland Center
12:09PM 41.0628 -77.8997 344° North 387 445 24,000  Level Cleveland Center
12:10PM 41.1647 -77.9406 343° North 387 445 24,000  Level Cleveland Center
12:11PM 41.2669 -77.9803 344° North 388 447 24,000  Level Cleveland Center
12:12PM 41.3881 -78.0275 344° North 384 442 24,000  Level Cleveland Center
12:13PM 41.4928 -78.0686 344° North 392 451 24,000  Level Cleveland Center
12:14PM 41.5939 -78.1083 344° North 385 443 24,000  Level Cleveland Center
12:15PM 41.6950 -78.1497 343° North 384 442 24,000 -60 Level Cleveland Center
12:16PM 41.7961 -78.1878 344° North 381 438 23,900 -1,260 Descending Cleveland Center
12:17PM 41.9164 -78.2367 343° North 379 436 21,500 -2,100 Descending Cleveland Center
12:18PM 42.0114 -78.2742 344° North 365 420 19,600 -1,860 Descending Cleveland Center
12:19PM 42.1061 -78.3108 344° North 358 412 17,700 -2,040 Descending Cleveland Center
12:20PM 42.2050 -78.3506 343° North 348 400 15,400 -2,160 Descending Cleveland Center
12:22PM 42.2889 -78.3864 342° North 322 371 13,300 -2,040 Descending Cleveland Center
12:23PM 42.3647 -78.4275 338° Northwest 300 345 11,300 -1,200 Descending Cleveland Center
12:24PM 42.4261 -78.4983 320° Northwest 296 341 10,900 -1,260 Descending Cleveland Center
12:25PM 42.4936 -78.5800 318° Northwest 282 325 8,700 -2,040 Descending Cleveland Center
12:26PM 42.5503 -78.6469 319° Northwest 263 303 6,800 -1,920 Descending Cleveland Center
12:27PM 42.6022 -78.7069 320° Northwest 257 296 4,800 -1,380 Descending Cleveland Center
12:28PM 42.6661 -78.7581 330° Northwest 254 292 4,000 -420 Descending Cleveland Center
12:29PM 42.7292 -78.8100 329° Northwest 254 292 4,000  Level Cleveland Center
12:30PM 42.7850 -78.8583 328° Northwest 231 266 4,000 -540 Level Cleveland Center
12:31PM 42.8331 -78.8428 13° North 182 209 2,900 -840 Descending Cleveland Center
12:32PM 42.8736 -78.8211 21° North 155 178 2,300 -600 Descending Cleveland Center
12:32PM 42.8833 -78.8000 58° Northeast 124 143 1,900 -660 Descending Buffalo TRACON
12:33PM 42.9167 -78.7667 36° Northeast 117 135 1,300 -720 Descending Buffalo TRACON